Time;durP1;ratioP1;P1;durP2;ratioP2;P2;SDS_P1;SDS_P2;PMS_P1;PMS_P2;Temp;Humidity;BMP_temperature;BMP_pressure;BME280_temperature;BME280_humidity;BME280_pressure;Samples;Min_cycle;Max_cycle;Signal;HPM_P1;HPM_P2
2023/07/08 00:02:13;;;;;;;11.27;7.57;;;24.30;84.50;;;;;;4942503;28;20045;-81
2023/07/08 00:04:39;;;;;;;;;;;24.30;84.40;;;;;;4967994;28;20455;-82
2023/07/08 00:07:05;;;;;;;9.60;7.63;;;24.20;84.60;;;;;;4952371;28;20013;-83
2023/07/08 00:09:31;;;;;;;14.43;8.15;;;24.10;84.80;;;;;;4946195;28;20074;-82
2023/07/08 00:11:57;;;;;;;14.40;8.20;;;24.10;85.00;;;;;;4962718;28;20034;-82
2023/07/08 00:14:23;;;;;;;10.90;7.90;;;24.10;84.90;;;;;;4954087;28;20031;-82
2023/07/08 00:16:49;;;;;;;10.65;8.75;;;24.10;85.00;;;;;;4948167;29;20028;-81
2023/07/08 00:19:19;;;;;;;9.95;8.43;;;24.10;85.30;;;;;;4969340;28;20034;-82
2023/07/08 00:21:45;;;;;;;12.52;8.88;;;24.00;86.00;;;;;;4965533;28;20078;-81
2023/07/08 00:24:12;;;;;;;15.15;9.50;;;24.00;85.50;;;;;;4963686;28;20178;-82
2023/07/08 00:26:38;;;;;;;20.25;9.35;;;24.00;85.80;;;;;;4980861;28;20155;-82
2023/07/08 00:29:10;;;;;;;14.40;9.07;;;24.00;86.20;;;;;;4964228;28;20085;-82
2023/07/08 00:31:37;;;;;;;10.90;8.45;;;23.90;86.00;;;;;;4963563;28;20507;-82
2023/07/08 00:34:03;;;;;;;15.13;9.32;;;23.90;86.50;;;;;;4943288;28;20114;-82
2023/07/08 00:36:30;;;;;;;12.20;8.70;;;23.90;86.20;;;;;;4933024;28;21216;-82
2023/07/08 00:38:58;;;;;;;11.18;8.73;;;23.80;86.60;;;;;;4958887;28;20034;-82
2023/07/08 00:41:42;;;;;;;12.70;9.10;;;23.80;86.50;;;;;;4967297;28;20065;-82
2023/07/08 00:44:11;;;;;;;12.75;9.50;;;23.80;86.30;;;;;;4976995;28;20027;-82
2023/07/08 00:46:49;;;;;;;11.32;8.63;;;23.70;87.00;;;;;;4933891;28;20039;-82
2023/07/08 00:49:22;;;;;;;11.18;9.13;;;23.70;87.00;;;;;;4950874;29;20038;-82
2023/07/08 00:51:48;;;;;;;11.15;8.93;;;23.70;86.70;;;;;;4978372;28;20571;-82
2023/07/08 00:54:18;;;;;;;13.57;9.45;;;23.70;87.00;;;;;;4965522;28;20038;-82
2023/07/08 00:56:59;;;;;;;10.85;8.45;;;23.60;87.30;;;;;;4954753;28;20118;-82
2023/07/08 00:59:31;;;;;;;10.48;8.85;;;23.60;87.80;;;;;;4945108;29;20031;-81
2023/07/08 01:02:00;;;;;;;11.13;9.18;;;23.60;87.80;;;;;;4946212;28;20039;-81
2023/07/08 01:04:33;;;;;;;15.38;9.40;;;23.60;88.50;;;;;;4976824;28;20046;-82
2023/07/08 01:07:03;;;;;;;10.63;8.88;;;23.60;88.70;;;;;;4968223;28;20039;-82
2023/07/08 01:09:35;;;;;;;13.18;10.27;;;23.50;88.70;;;;;;4966912;28;20519;-82
2023/07/08 01:12:05;;;;;;;15.65;9.95;;;23.50;88.70;;;;;;4957951;28;20026;-81
2023/07/08 01:14:34;;;;;;;12.25;9.38;;;23.50;88.60;;;;;;4950221;28;20034;-82
2023/07/08 01:17:00;;;;;;;12.73;9.75;;;23.40;89.00;;;;;;4955706;28;20027;-81
2023/07/08 01:19:33;;;;;;;16.17;9.10;;;23.40;89.70;;;;;;4965617;28;20037;-81
2023/07/08 01:22:04;;;;;;;12.07;9.32;;;23.30;89.70;;;;;;4958868;28;20081;-81
2023/07/08 01:24:32;;;;;;;10.80;9.18;;;23.30;90.00;;;;;;4943816;29;20455;-81
2023/07/08 01:26:59;;;;;;;13.95;9.70;;;23.30;90.40;;;;;;4967864;28;20034;-81
2023/07/08 01:29:26;;;;;;;11.27;9.60;;;23.30;90.10;;;;;;4957886;28;20031;-81
2023/07/08 01:31:54;;;;;;;15.32;9.73;;;23.30;90.20;;;;;;4956673;28;20606;-81
2023/07/08 01:34:20;;;;;;;16.10;10.38;;;23.30;90.20;;;;;;4964283;28;20023;-81
2023/07/08 01:36:52;;;;;;;14.55;9.57;;;23.20;90.20;;;;;;4933694;28;20031;-82
2023/07/08 01:39:21;;;;;;;13.75;9.75;;;23.20;90.10;;;;;;4950348;28;20028;-82
2023/07/08 01:41:47;;;;;;;12.75;9.25;;;23.20;90.50;;;;;;4970873;28;20493;-81
2023/07/08 01:44:29;;;;;;;15.73;9.30;;;23.20;90.50;;;;;;4956993;28;20138;-82
2023/07/08 01:47:00;;;;;;;12.38;9.63;;;23.10;90.30;;;;;;4987663;28;20030;-82
2023/07/08 01:49:27;;;;;;;18.35;10.40;;;23.00;90.70;;;;;;4979982;28;20057;-81
2023/07/08 01:51:53;;;;;;;12.85;9.60;;;23.00;90.70;;;;;;4961416;28;20034;-82
2023/07/08 01:54:18;;;;;;;11.97;9.40;;;23.00;90.70;;;;;;4945044;28;20117;-81
2023/07/08 01:56:44;;;;;;;13.00;10.00;;;23.00;90.70;;;;;;4960818;28;20126;-82
2023/07/08 01:59:10;;;;;;;12.37;10.17;;;23.00;90.70;;;;;;4961250;28;20049;-81
2023/07/08 02:01:36;;;;;;;12.70;9.83;;;22.90;91.00;;;;;;4962052;28;20038;-81
2023/07/08 02:04:02;;;;;;;11.30;9.53;;;22.90;91.20;;;;;;4964236;28;20062;-81
2023/07/08 02:06:27;;;;;;;11.63;9.25;;;22.90;91.30;;;;;;4980245;28;20129;-81
2023/07/08 02:08:58;;;;;;;14.82;9.60;;;22.80;91.40;;;;;;4980514;28;20030;-82
2023/07/08 02:11:24;;;;;;;13.43;10.27;;;22.80;91.40;;;;;;4980001;28;20125;-82
2023/07/08 02:13:50;;;;;;;11.97;9.53;;;22.80;91.50;;;;;;4981099;28;20109;-82
2023/07/08 02:16:15;;;;;;;13.00;9.70;;;22.80;91.30;;;;;;4980228;28;20026;-81
2023/07/08 02:18:43;;;;;;;13.50;10.10;;;22.80;91.40;;;;;;4997591;28;20222;-82
2023/07/08 02:21:09;;;;;;;11.95;9.60;;;22.80;91.30;;;;;;4964403;28;20085;-82
2023/07/08 02:23:34;;;;;;;13.37;10.23;;;22.80;91.40;;;;;;4997888;28;20034;-81
2023/07/08 02:26:00;;;;;;;15.70;11.05;;;22.80;91.40;;;;;;4953644;28;20031;-81
2023/07/08 02:28:26;;;;;;;12.27;9.67;;;22.80;91.50;;;;;;4929691;28;20109;-81
2023/07/08 02:30:52;;;;;;;14.07;11.10;;;22.80;91.60;;;;;;4951052;29;20031;-81
2023/07/08 02:33:19;;;;;;;;;;;22.80;91.60;;;;;;4953184;28;20035;-82
2023/07/08 02:35:47;;;;;;;15.38;10.02;;;22.70;91.50;;;;;;4965890;28;19917;-81
2023/07/08 02:38:13;;;;;;;10.80;9.60;;;22.70;91.70;;;;;;4929308;28;20042;-81
2023/07/08 02:40:43;;;;;;;14.38;10.38;;;22.70;91.80;;;;;;4988605;28;20065;-81
2023/07/08 02:43:14;;;;;;;13.25;10.50;;;22.80;91.80;;;;;;4996040;28;20038;-81
2023/07/08 02:45:40;;;;;;;12.33;10.20;;;22.80;91.80;;;;;;4979001;28;20493;-81
2023/07/08 02:48:05;;;;;;;14.10;10.60;;;22.90;91.90;;;;;;4971398;28;20117;-81
2023/07/08 02:50:31;;;;;;;14.33;9.90;;;22.90;91.70;;;;;;4951361;29;20038;-81
2023/07/08 02:52:57;;;;;;;13.20;10.73;;;22.90;91.60;;;;;;4949773;28;20026;-81
2023/07/08 02:55:23;;;;;;;12.13;9.90;;;22.90;91.60;;;;;;4943577;28;20035;-81
2023/07/08 02:57:49;;;;;;;13.40;9.43;;;22.90;91.60;;;;;;4959749;28;20031;-81
2023/07/08 03:00:15;;;;;;;12.98;8.82;;;22.90;91.50;;;;;;4953990;28;20027;-81
2023/07/08 03:02:41;;;;;;;15.13;10.23;;;22.90;91.70;;;;;;4941453;29;20030;-81
2023/07/08 03:05:07;;;;;;;14.77;9.80;;;22.90;91.70;;;;;;4951034;28;20027;-81
2023/07/08 03:07:33;;;;;;;12.40;9.88;;;22.90;91.70;;;;;;4972360;28;20502;-81
2023/07/08 03:09:59;;;;;;;15.17;10.37;;;22.80;91.80;;;;;;4947747;28;20027;-81
2023/07/08 03:12:25;;;;;;;16.33;10.65;;;22.80;91.80;;;;;;4945022;28;20023;-82
2023/07/08 03:14:51;;;;;;;12.60;9.53;;;22.80;91.80;;;;;;4959300;28;20023;-81
2023/07/08 03:17:19;;;;;;;13.20;10.30;;;22.80;91.80;;;;;;4978278;28;20024;-82
2023/07/08 03:19:45;;;;;;;12.10;9.60;;;22.70;91.90;;;;;;4973911;28;20030;-81
2023/07/08 03:22:11;;;;;;;12.63;9.97;;;22.70;91.90;;;;;;4957310;28;20080;-81
2023/07/08 03:24:37;;;;;;;12.37;10.20;;;22.70;92.10;;;;;;4956438;28;20038;-81
2023/07/08 03:27:05;;;;;;;14.20;10.05;;;22.70;92.00;;;;;;4951295;28;20058;-81
2023/07/08 03:29:33;;;;;;;12.32;10.05;;;22.70;92.20;;;;;;4945867;28;20062;-81
2023/07/08 03:32:00;;;;;;;14.40;10.80;;;22.60;92.20;;;;;;4955534;28;20038;-81
2023/07/08 03:34:26;;;;;;;14.75;10.75;;;22.60;92.20;;;;;;4941247;28;20031;-81
2023/07/08 03:36:54;;;;;;;12.98;10.00;;;22.60;92.40;;;;;;4944371;29;20444;-81
2023/07/08 03:39:23;;;;;;;18.58;10.23;;;22.60;92.40;;;;;;4933919;28;20069;-81
2023/07/08 03:41:50;;;;;;;11.30;9.98;;;22.60;92.50;;;;;;4944766;29;20031;-81
2023/07/08 03:44:16;;;;;;;12.82;10.30;;;22.60;92.60;;;;;;4949708;28;20121;-81
2023/07/08 03:46:49;;;;;;;16.63;10.45;;;22.60;92.80;;;;;;4935207;28;20030;-82
2023/07/08 03:49:23;;;;;;;16.35;10.65;;;22.50;92.80;;;;;;4951237;28;20034;-81
2023/07/08 03:51:53;;;;;;;11.68;10.48;;;22.50;92.90;;;;;;4949583;28;20039;-82
2023/07/08 03:54:20;;;;;;;11.60;10.23;;;22.50;93.10;;;;;;4955754;28;20031;-82
2023/07/08 03:56:47;;;;;;;13.75;9.85;;;22.50;93.20;;;;;;4943944;28;20038;-83
2023/07/08 03:59:13;;;;;;;12.02;10.13;;;22.50;93.50;;;;;;4960025;28;20035;-82
2023/07/08 04:01:40;;;;;;;12.90;11.07;;;22.40;93.80;;;;;;4959209;28;20122;-81
2023/07/08 04:04:14;;;;;;;13.82;9.77;;;22.40;93.90;;;;;;4975529;28;20031;-82
2023/07/08 04:06:41;;;;;;;12.82;9.50;;;22.40;94.10;;;;;;4977051;28;20031;-82
2023/07/08 04:09:07;;;;;;;13.90;9.48;;;22.40;94.50;;;;;;4959403;28;20034;-82
2023/07/08 04:11:33;;;;;;;14.27;9.63;;;22.40;94.60;;;;;;4977280;28;20089;-82
2023/07/08 04:13:59;;;;;;;15.70;9.30;;;22.40;94.80;;;;;;4959847;28;20479;-81
2023/07/08 04:16:29;;;;;;;15.00;9.52;;;22.40;94.90;;;;;;4976726;28;20023;-82
2023/07/08 04:18:55;;;;;;;15.93;10.40;;;22.40;95.10;;;;;;4943608;28;20049;-81
2023/07/08 04:21:23;;;;;;;18.85;9.48;;;22.40;95.30;;;;;;4977078;28;20018;-81
2023/07/08 04:23:49;;;;;;;11.80;8.60;;;22.50;95.40;;;;;;4964276;28;20041;-81
2023/07/08 04:26:15;;;;;;;13.63;8.48;;;22.40;95.60;;;;;;4977035;28;20026;-81
2023/07/08 04:28:42;;;;;;;15.43;9.15;;;22.40;95.80;;;;;;4964692;28;20042;-82
2023/07/08 04:31:08;;;;;;;14.07;9.80;;;22.50;96.10;;;;;;4980531;28;20045;-83
2023/07/08 04:33:34;;;;;;;11.93;8.82;;;22.50;96.20;;;;;;4954872;28;20098;-84
2023/07/08 04:36:00;;;;;;;11.03;8.63;;;22.50;96.40;;;;;;4998159;23;20043;-81
2023/07/08 04:38:26;;;;;;;12.87;8.43;;;22.50;96.30;;;;;;4996807;28;20283;-81
2023/07/08 04:40:53;;;;;;;15.50;8.18;;;22.70;96.30;;;;;;4978871;28;20486;-81
2023/07/08 04:43:20;;;;;;;15.02;8.98;;;22.80;96.10;;;;;;4945114;28;20395;-82
2023/07/08 04:45:52;;;;;;;13.55;8.35;;;22.90;96.20;;;;;;4975645;28;20435;-81
2023/07/08 04:48:21;;;;;;;13.88;8.32;;;23.00;95.80;;;;;;4941026;29;20078;-82
2023/07/08 04:50:49;;;;;;;16.50;7.93;;;23.10;96.10;;;;;;4941457;29;20400;-82
2023/07/08 04:53:15;;;;;;;9.05;7.53;;;23.30;96.00;;;;;;4941731;29;20027;-82
2023/07/08 04:55:54;;;;;;;11.00;7.80;;;23.40;95.80;;;;;;4941214;28;20166;-82
2023/07/08 04:58:20;;;;;;;10.27;7.40;;;23.40;95.70;;;;;;4941182;29;20083;-82
2023/07/08 05:00:45;;;;;;;9.10;7.17;;;23.60;95.60;;;;;;4941073;29;20079;-82
2023/07/08 05:03:12;;;;;;;10.23;7.93;;;23.60;95.70;;;;;;4941030;29;20035;-82
2023/07/08 05:05:37;;;;;;;14.37;7.17;;;23.70;95.70;;;;;;4940595;28;20492;-83
2023/07/08 05:08:03;;;;;;;11.87;7.30;;;23.70;95.70;;;;;;4940706;29;20306;-82
2023/07/08 05:10:29;;;;;;;11.97;6.53;;;23.70;95.60;;;;;;4958169;29;20118;-82
2023/07/08 05:12:55;;;;;;;12.60;7.47;;;23.70;95.60;;;;;;4940939;29;20038;-82
2023/07/08 05:15:21;;;;;;;11.47;7.77;;;23.80;95.80;;;;;;4940484;29;20495;-82
2023/07/08 05:17:47;;;;;;;9.82;6.75;;;23.90;95.90;;;;;;4940982;29;20028;-82
2023/07/08 05:20:14;;;;;;;9.43;7.40;;;23.90;95.90;;;;;;4940860;29;20033;-82
2023/07/08 05:22:42;;;;;;;10.30;7.18;;;24.00;95.90;;;;;;4958653;29;20034;-81
2023/07/08 05:25:09;;;;;;;11.20;6.85;;;24.00;95.90;;;;;;4940884;29;20043;-82
2023/07/08 05:27:35;;;;;;;9.02;6.95;;;24.10;95.50;;;;;;4941727;29;20023;-82
2023/07/08 05:30:02;;;;;;;8.87;6.80;;;24.20;95.60;;;;;;4958351;29;20039;-82
2023/07/08 05:32:28;;;;;;;9.93;6.30;;;24.20;95.70;;;;;;4925218;29;20066;-82
2023/07/08 05:34:54;;;;;;;12.33;7.03;;;24.20;95.50;;;;;;4959512;29;20023;-82
2023/07/08 05:37:24;;;;;;;8.55;6.70;;;24.20;95.30;;;;;;4941558;29;20073;-82
2023/07/08 05:39:52;;;;;;;8.55;6.57;;;24.20;95.30;;;;;;4958400;29;20440;-82
2023/07/08 05:42:20;;;;;;;9.95;6.28;;;24.10;95.50;;;;;;4959167;29;20031;-83
2023/07/08 05:44:45;;;;;;;8.85;6.43;;;24.10;95.90;;;;;;4958608;29;20576;-82
2023/07/08 05:47:12;;;;;;;11.03;6.87;;;24.10;95.90;;;;;;4940445;29;20106;-82
2023/07/08 05:49:38;;;;;;;8.57;6.03;;;24.10;96.10;;;;;;4940702;29;20135;-82
2023/07/08 05:52:10;;;;;;;9.30;6.70;;;24.10;96.30;;;;;;4957686;29;20027;-81
2023/07/08 05:54:37;;;;;;;9.65;7.00;;;24.10;96.30;;;;;;4958110;29;20042;-82
2023/07/08 05:57:03;;;;;;;8.93;6.43;;;24.20;96.30;;;;;;4940887;29;20028;-83
2023/07/08 05:59:29;;;;;;;11.23;6.23;;;24.20;96.40;;;;;;4940046;29;20023;-82
2023/07/08 06:01:55;;;;;;;7.23;6.53;;;24.20;96.40;;;;;;4940264;29;20035;-82
2023/07/08 06:04:21;;;;;;;9.13;6.70;;;24.30;96.70;;;;;;4940588;29;20114;-83
2023/07/08 06:06:48;;;;;;;8.82;7.25;;;24.30;96.70;;;;;;4939577;29;20082;-82
2023/07/08 06:09:13;;;;;;;8.07;6.75;;;24.30;96.60;;;;;;4939841;29;20031;-82
2023/07/08 06:11:39;;;;;;;10.23;7.63;;;24.40;96.70;;;;;;4958349;29;20131;-82
2023/07/08 06:14:05;;;;;;;11.33;7.47;;;24.40;96.60;;;;;;4939863;29;20484;-82
2023/07/08 06:16:31;;;;;;;12.82;7.65;;;24.40;96.40;;;;;;4939045;29;20074;-82
2023/07/08 06:18:57;;;;;;;10.10;7.83;;;24.40;96.10;;;;;;4940594;29;20042;-82
2023/07/08 06:21:24;;;;;;;12.47;8.10;;;24.40;95.90;;;;;;4939934;29;20448;-82
2023/07/08 06:23:49;;;;;;;11.48;7.53;;;24.50;96.00;;;;;;4940540;29;20038;-82
2023/07/08 06:26:15;;;;;;;9.80;7.67;;;24.50;95.70;;;;;;4940477;29;20110;-82
2023/07/08 06:28:41;;;;;;;9.87;7.93;;;24.60;95.40;;;;;;4939866;29;20400;-82
2023/07/08 06:31:07;;;;;;;14.27;8.27;;;24.70;95.30;;;;;;4939757;29;20035;-82
2023/07/08 06:33:33;;;;;;;11.63;8.13;;;24.80;95.20;;;;;;4939897;29;20464;-82
2023/07/08 06:35:58;;;;;;;11.83;8.40;;;24.80;95.00;;;;;;4956625;28;20539;-82
2023/07/08 06:38:24;;;;;;;9.83;8.17;;;24.90;94.90;;;;;;4938871;29;20035;-82
2023/07/08 06:40:50;;;;;;;8.60;6.97;;;24.80;94.80;;;;;;4940039;29;20106;-82
2023/07/08 06:43:16;;;;;;;10.10;7.90;;;24.90;94.60;;;;;;4924332;29;20085;-82
2023/07/08 06:45:50;;;;;;;15.15;9.05;;;24.90;94.20;;;;;;4939871;28;20031;-82
2023/07/08 06:48:16;;;;;;;11.00;8.03;;;25.00;94.10;;;;;;4939321;29;20039;-82
2023/07/08 06:50:45;;;;;;;10.10;8.47;;;25.00;94.00;;;;;;4956809;29;20349;-82
2023/07/08 06:53:11;;;;;;;11.88;8.40;;;24.90;93.10;;;;;;4939232;29;20189;-82
2023/07/08 06:55:37;;;;;;;12.50;9.27;;;24.90;93.10;;;;;;4939241;28;20128;-81
2023/07/08 06:58:02;;;;;;;10.33;8.50;;;25.00;92.80;;;;;;4939789;29;20023;-82
2023/07/08 07:00:28;;;;;;;11.63;8.63;;;25.00;92.80;;;;;;4957353;29;20031;-82
2023/07/08 07:02:54;;;;;;;10.73;8.07;;;25.10;91.80;;;;;;4923728;29;20042;-82
2023/07/08 07:05:20;;;;;;;10.73;8.53;;;25.20;91.40;;;;;;4956323;29;20422;-83
2023/07/08 07:07:46;;;;;;;15.87;8.70;;;25.20;91.20;;;;;;4939001;29;20733;-82
2023/07/08 07:10:12;;;;;;;8.23;6.97;;;25.20;90.40;;;;;;4939145;29;20046;-82
2023/07/08 07:12:37;;;;;;;13.33;8.67;;;25.30;89.60;;;;;;4940176;29;20031;-82
2023/07/08 07:15:04;;;;;;;10.97;8.63;;;25.30;89.50;;;;;;4958334;29;20113;-82
2023/07/08 07:17:30;;;;;;;;;;;25.30;87.40;;;;;;4940761;29;20518;-82
2023/07/08 07:19:56;;;;;;;12.23;7.80;;;25.30;86.70;;;;;;4939830;29;19915;-82
2023/07/08 07:22:23;;;;;;;10.87;7.70;;;25.40;86.90;;;;;;4958700;29;20397;-82
2023/07/08 07:24:49;;;;;;;8.82;6.60;;;25.40;87.10;;;;;;4939316;29;20085;-82
2023/07/08 07:27:15;;;;;;;12.80;7.43;;;25.50;85.20;;;;;;4939501;29;20035;-82
2023/07/08 07:29:46;;;;;;;10.07;6.78;;;25.50;85.00;;;;;;4939810;29;20799;-82
2023/07/08 07:32:13;;;;;;;8.82;7.03;;;25.60;82.60;;;;;;4957493;29;20508;-82
2023/07/08 07:34:39;;;;;;;8.77;5.88;;;25.60;82.50;;;;;;4939459;29;20409;-82
2023/07/08 07:37:06;;;;;;;11.93;6.40;;;25.70;81.40;;;;;;4939351;29;20592;-81
2023/07/08 07:39:32;;;;;;;8.55;5.65;;;25.70;81.40;;;;;;4957006;29;20729;-82
2023/07/08 07:41:58;;;;;;;7.10;5.17;;;25.70;80.00;;;;;;4957268;29;20583;-82
2023/07/08 07:44:24;;;;;;;20.13;5.83;;;25.80;80.00;;;;;;4956945;29;20023;-82
2023/07/08 07:46:53;;;;;;;9.00;6.28;;;25.80;78.70;;;;;;4956838;28;20381;-83
2023/07/08 07:49:20;;;;;;;8.73;6.15;;;25.80;77.80;;;;;;4939317;29;20444;-82
2023/07/08 07:51:46;;;;;;;7.53;6.20;;;25.90;78.80;;;;;;4956855;29;20476;-82
2023/07/08 07:54:12;;;;;;;13.17;6.77;;;26.00;79.00;;;;;;4939712;29;20035;-82
2023/07/08 07:56:37;;;;;;;9.80;5.40;;;26.00;76.90;;;;;;4940004;29;20388;-82
2023/07/08 07:59:03;;;;;;;7.27;5.90;;;26.10;76.60;;;;;;4939637;29;20035;-82
2023/07/08 08:01:30;;;;;;;8.75;5.68;;;26.10;75.30;;;;;;4939858;29;20571;-82
2023/07/08 08:03:56;;;;;;;10.57;5.95;;;26.20;75.20;;;;;;4957790;29;20031;-83
2023/07/08 08:06:22;;;;;;;10.20;6.17;;;26.20;75.20;;;;;;4939917;29;20043;-83
2023/07/08 08:08:49;;;;;;;7.90;5.82;;;26.30;74.30;;;;;;4957463;29;20035;-82
2023/07/08 08:11:15;;;;;;;;;;;26.30;74.00;;;;;;4940213;29;20543;-83
2023/07/08 08:13:41;;;;;;;7.15;4.13;;;26.30;70.60;;;;;;4939670;29;19934;-82
2023/07/08 08:16:07;;;;;;;9.32;4.47;;;26.40;71.70;;;;;;4957545;28;20083;-83
2023/07/08 08:18:33;;;;;;;6.27;5.03;;;26.40;70.20;;;;;;4957363;29;20031;-83
2023/07/08 08:20:59;;;;;;;8.88;5.45;;;26.40;70.10;;;;;;4957811;29;20446;-83
2023/07/08 08:23:25;;;;;;;7.55;4.60;;;26.50;70.80;;;;;;4957783;29;20034;-83
2023/07/08 08:25:51;;;;;;;6.30;4.63;;;26.60;71.10;;;;;;4939916;28;20508;-83
2023/07/08 08:28:18;;;;;;;6.70;5.90;;;26.60;71.10;;;;;;4922960;29;20088;-82
2023/07/08 08:30:53;;;;;;;9.65;5.97;;;26.70;70.60;;;;;;4939717;29;20027;-82
2023/07/08 08:33:19;;;;;;;6.43;4.40;;;26.70;70.20;;;;;;4939883;29;20396;-82
2023/07/08 08:35:45;;;;;;;8.15;5.10;;;26.70;70.80;;;;;;4957490;28;20086;-82
2023/07/08 08:38:11;;;;;;;9.38;4.78;;;26.80;70.10;;;;;;4939332;29;20480;-82
2023/07/08 08:40:39;;;;;;;10.07;5.20;;;26.90;69.80;;;;;;4959493;28;20122;-82
2023/07/08 08:43:13;;;;;;;4.80;4.15;;;26.90;68.20;;;;;;4943287;29;20042;-82
2023/07/08 08:46:08;;;;;;;9.05;4.55;;;26.90;66.50;;;;;;4942540;28;20037;-82
2023/07/08 08:48:45;;;;;;;7.05;5.00;;;27.10;66.80;;;;;;4960088;29;20460;-82
2023/07/08 08:51:15;;;;;;;12.02;5.38;;;27.20;67.40;;;;;;4942443;29;20138;-80
2023/07/08 08:53:42;;;;;;;7.00;5.25;;;27.20;66.30;;;;;;4959380;29;20038;-82
2023/07/08 08:56:20;;;;;;;7.95;4.90;;;27.20;66.50;;;;;;4941545;29;20027;-82
2023/07/08 08:59:02;;;;;;;8.60;4.85;;;27.30;66.80;;;;;;4942062;29;20475;-81
2023/07/08 09:01:28;;;;;;;6.97;5.10;;;27.40;67.70;;;;;;4942755;29;20517;-82
2023/07/08 09:04:12;;;;;;;10.00;5.70;;;27.50;66.80;;;;;;4941359;29;20031;-81
2023/07/08 09:06:39;;;;;;;8.43;4.57;;;27.60;67.90;;;;;;4959308;28;20325;-82
2023/07/08 09:09:24;;;;;;;5.68;4.18;;;27.60;66.20;;;;;;4959662;29;20439;-81
2023/07/08 09:12:05;;;;;;;7.32;4.30;;;27.70;64.80;;;;;;4959175;29;20038;-82
2023/07/08 09:14:34;;;;;;;5.15;4.32;;;27.80;62.70;;;;;;4942168;29;20503;-82
2023/07/08 09:17:22;;;;;;;6.97;4.50;;;27.90;62.00;;;;;;4959799;28;20020;-82
2023/07/08 09:20:12;;;;;;;8.90;4.13;;;28.00;62.00;;;;;;4942352;29;20071;-82
2023/07/08 09:22:55;;;;;;;8.15;4.75;;;28.10;62.70;;;;;;4941880;29;20484;-82
2023/07/08 09:25:27;;;;;;;6.80;4.32;;;28.20;64.10;;;;;;4942443;29;20075;-82
2023/07/08 09:27:53;;;;;;;7.30;4.63;;;28.30;63.60;;;;;;4941985;29;20040;-80
2023/07/08 09:30:21;;;;;;;5.10;4.40;;;28.20;62.50;;;;;;4959882;29;20061;-80
2023/07/08 09:32:48;;;;;;;5.97;4.03;;;28.20;62.30;;;;;;4942156;29;20030;-80
2023/07/08 09:35:18;;;;;;;6.82;4.15;;;28.20;63.10;;;;;;4959298;29;20473;-80
2023/07/08 09:37:48;;;;;;;5.72;3.67;;;28.30;62.20;;;;;;4941553;29;20041;-80
2023/07/08 09:40:20;;;;;;;9.15;4.57;;;28.30;61.50;;;;;;4959432;29;20093;-79
2023/07/08 09:42:54;;;;;;;6.50;3.92;;;28.40;60.20;;;;;;4942006;29;20039;-80
2023/07/08 09:45:23;;;;;;;6.75;4.07;;;28.40;60.30;;;;;;4959668;29;20035;-79
2023/07/08 09:47:54;;;;;;;7.25;3.85;;;28.50;61.30;;;;;;4941504;29;20031;-79
2023/07/08 09:50:21;;;;;;;6.68;3.90;;;28.50;61.10;;;;;;4959319;28;20033;-78
2023/07/08 09:52:49;;;;;;;5.43;3.72;;;28.60;59.90;;;;;;4941627;29;20043;-79
2023/07/08 09:55:16;;;;;;;6.35;3.67;;;28.50;59.50;;;;;;4959680;29;20035;-80
2023/07/08 09:57:44;;;;;;;5.25;3.72;;;28.60;60.20;;;;;;4941543;29;20031;-80
2023/07/08 10:00:17;;;;;;;6.85;3.88;;;28.60;59.90;;;;;;4940973;29;20114;-80
2023/07/08 10:02:52;;;;;;;4.57;3.80;;;28.70;59.80;;;;;;4941624;29;20093;-79
2023/07/08 10:05:25;;;;;;;5.60;3.60;;;28.80;59.50;;;;;;4958930;29;20035;-79
2023/07/08 10:07:55;;;;;;;6.35;3.88;;;28.90;58.50;;;;;;4941784;29;20039;-79
2023/07/08 10:10:35;;;;;;;6.38;3.63;;;28.90;58.00;;;;;;4941923;29;20062;-79
2023/07/08 10:13:18;;;;;;;4.95;3.47;;;29.00;58.90;;;;;;4941543;29;20050;-80
2023/07/08 10:15:49;;;;;;;6.60;3.50;;;29.10;58.40;;;;;;4959222;28;20031;-79
2023/07/08 10:18:17;;;;;;;5.50;3.90;;;29.10;57.60;;;;;;4959750;29;20028;-80
2023/07/08 10:21:19;;;;;;;6.72;4.00;;;29.20;57.90;;;;;;4959626;29;20023;-80
2023/07/08 10:23:52;;;;;;;5.43;3.85;;;29.30;57.60;;;;;;4929583;29;20039;-79
2023/07/08 10:26:30;;;;;;;4.82;3.70;;;29.40;55.80;;;;;;4959225;28;20023;-78
2023/07/08 10:29:21;;;;;;;5.53;3.72;;;29.50;56.10;;;;;;4940862;29;20035;-79
2023/07/08 10:32:19;;;;;;;8.38;4.82;;;29.50;56.30;;;;;;4958711;29;20054;-80
2023/07/08 10:35:14;;;;;;;5.30;3.80;;;29.70;57.10;;;;;;4910667;29;20058;-80
2023/07/08 10:38:01;;;;;;;6.13;3.83;;;29.80;57.70;;;;;;4959798;28;20061;-80
2023/07/08 10:40:30;;;;;;;6.53;3.55;;;29.80;53.80;;;;;;4944259;28;20030;-79
2023/07/08 10:43:14;;;;;;;7.28;4.13;;;29.80;56.10;;;;;;4958106;28;20034;-80
2023/07/08 11:15:31;;;;;;;6.57;4.22;;;30.80;55.30;;;;;;6037845;23;20053;-82
2023/07/08 11:18:09;;;;;;;4.35;3.83;;;30.90;55.30;;;;;;4957258;28;20034;-82
2023/07/08 11:20:53;;;;;;;5.38;3.75;;;30.80;55.80;;;;;;4966184;28;20063;-82
2023/07/08 11:23:32;;;;;;;15.75;4.57;;;30.80;51.80;;;;;;4957473;28;20045;-82
2023/07/08 11:26:30;;;;;;;6.40;4.18;;;30.80;52.00;;;;;;4942859;29;20039;-82
2023/07/08 11:29:00;;;;;;;4.95;3.22;;;30.90;49.50;;;;;;4981201;23;20111;-83
2023/07/08 11:31:31;;;;;;;6.68;4.10;;;30.90;52.40;;;;;;4992779;28;20031;-83
2023/07/08 11:33:58;;;;;;;5.93;3.60;;;30.90;53.30;;;;;;4995653;28;20019;-83
2023/07/08 11:36:25;;;;;;;6.15;4.15;;;31.00;52.70;;;;;;4980145;28;20388;-84
2023/07/08 11:38:54;;;;;;;6.18;4.00;;;31.10;53.00;;;;;;4955276;29;20039;-83
2023/07/08 11:41:28;;;;;;;6.57;4.03;;;31.20;53.40;;;;;;4960380;29;20062;-83
2023/07/08 11:44:02;;;;;;;6.07;3.63;;;31.20;51.60;;;;;;4960756;29;20038;-84
2023/07/08 11:46:31;;;;;;;5.78;3.92;;;31.20;51.10;;;;;;4960650;29;20385;-81
2023/07/08 11:49:13;;;;;;;7.82;4.05;;;31.20;50.00;;;;;;4960778;29;20512;-81
2023/07/08 11:51:44;;;;;;;5.03;3.40;;;31.30;51.00;;;;;;4962669;28;20522;-81
2023/07/08 11:54:27;;;;;;;5.75;3.50;;;31.40;50.90;;;;;;4962385;29;20054;-81
2023/07/08 11:57:09;;;;;;;6.18;4.57;;;31.60;49.90;;;;;;4960128;29;20031;-80
2023/07/08 11:59:40;;;;;;;4.35;3.78;;;31.70;50.50;;;;;;4947778;29;20515;-80
2023/07/08 12:02:14;;;;;;;5.70;3.83;;;31.70;51.10;;;;;;4962259;28;20030;-81
2023/07/08 12:04:52;;;;;;;6.03;4.28;;;31.80;51.40;;;;;;4943518;29;20035;-80
2023/07/08 12:07:28;;;;;;;8.98;3.92;;;31.90;50.70;;;;;;4962582;29;20102;-80
2023/07/08 12:10:27;;;;;;;4.88;3.97;;;31.90;50.00;;;;;;4960675;29;20046;-80
2023/07/08 12:12:53;;;;;;;7.55;3.45;;;32.00;51.90;;;;;;4961943;29;20059;-80
2023/07/08 12:15:28;;;;;;;4.60;3.88;;;32.10;51.90;;;;;;4963351;28;20030;-80
2023/07/08 12:18:01;;;;;;;4.47;3.40;;;32.40;50.30;;;;;;4966253;29;20492;-80
2023/07/08 12:20:34;;;;;;;5.60;3.40;;;32.50;50.20;;;;;;4966007;29;20031;-80
2023/07/08 12:23:01;;;;;;;5.20;3.25;;;32.60;48.00;;;;;;4965114;29;20484;-80
2023/07/08 12:25:36;;;;;;;4.22;3.00;;;32.70;49.20;;;;;;4965066;29;20510;-80
2023/07/08 12:28:03;;;;;;;3.88;3.30;;;32.70;45.80;;;;;;4966594;29;20067;-83
2023/07/08 12:30:32;;;;;;;6.03;3.95;;;32.60;45.60;;;;;;4984914;28;20082;-83
2023/07/08 12:33:00;;;;;;;5.60;3.95;;;32.50;45.40;;;;;;4968576;28;20489;-83
2023/07/08 12:35:30;;;;;;;3.95;3.47;;;32.50;47.60;;;;;;4985635;28;20030;-83
2023/07/08 12:38:00;;;;;;;6.07;3.90;;;32.60;46.10;;;;;;4967219;28;20367;-80
2023/07/08 12:40:27;;;;;;;4.40;3.55;;;32.70;44.90;;;;;;4966475;28;20034;-80
2023/07/08 12:42:56;;;;;;;5.95;3.50;;;32.70;47.20;;;;;;4985137;28;20090;-80
2023/07/08 12:45:25;;;;;;;9.32;3.90;;;32.80;46.80;;;;;;4984856;28;20034;-80
2023/07/08 12:47:51;;;;;;;6.03;3.78;;;33.00;47.60;;;;;;4987824;28;20045;-83
2023/07/08 12:50:17;;;;;;;5.75;4.05;;;33.20;48.10;;;;;;4987146;28;20041;-80
2023/07/08 12:52:47;;;;;;;4.50;3.40;;;33.30;47.40;;;;;;4988379;28;20023;-81
2023/07/08 12:55:14;;;;;;;6.43;3.97;;;33.40;48.30;;;;;;4986749;28;20042;-81
2023/07/08 12:57:45;;;;;;;5.05;4.03;;;33.50;47.60;;;;;;4987207;28;20395;-80
2023/07/08 13:00:21;;;;;;;4.07;3.33;;;33.50;46.60;;;;;;4953750;28;20106;-81
2023/07/08 13:02:50;;;;;;;6.72;3.67;;;33.40;45.20;;;;;;4967830;28;20031;-81
2023/07/08 13:05:16;;;;;;;6.63;3.60;;;33.30;46.00;;;;;;4985980;28;20126;-81
2023/07/08 13:07:43;;;;;;;5.05;3.67;;;33.40;44.40;;;;;;4984680;28;20031;-80
2023/07/08 13:10:36;;;;;;;4.30;3.38;;;33.50;46.90;;;;;;4985110;28;20027;-81
2023/07/08 13:13:06;;;;;;;5.57;3.92;;;33.80;45.10;;;;;;4948762;28;20031;-81
2023/07/08 13:15:36;;;;;;;4.65;4.00;;;34.10;44.80;;;;;;4985940;28;20022;-81
2023/07/08 13:18:02;;;;;;;4.88;4.10;;;34.40;43.90;;;;;;4984698;28;20062;-80
2023/07/08 13:20:30;;;;;;;5.55;3.75;;;34.70;43.30;;;;;;4981628;28;20030;-81
2023/07/08 13:23:00;;;;;;;4.40;4.00;;;35.00;41.60;;;;;;4973893;28;20126;-81